createdAt,value
2023-04-26T03:34:39.501Z,1.80
2023-04-26T03:45:15.327Z,1.60
2023-04-26T03:55:51.012Z,1.60
2023-04-26T04:06:27.328Z,1.60
2023-04-26T04:17:03.602Z,1.50
2023-04-26T04:27:42.422Z,1.60
2023-04-26T04:38:18.507Z,1.60
2023-04-26T04:48:54.980Z,1.70
2023-04-26T04:59:31.285Z,2.10
2023-04-26T05:10:07.843Z,3.10
2023-04-26T05:20:43.668Z,3.40
2023-04-26T05:31:19.474Z,3.30
2023-04-26T05:41:44.810Z,4.50
2023-04-26T05:52:00.872Z,8.60
2023-04-26T06:02:17.243Z,12.90
2023-04-26T06:12:33.165Z,13.70
2023-04-26T06:22:49.665Z,15.50
2023-04-26T06:33:05.261Z,19.40
2023-04-26T06:43:21.968Z,19.10
2023-04-26T06:53:50.844Z,16.70
2023-04-26T07:04:12.773Z,21.20
2023-04-26T07:14:28.137Z,21.10
2023-04-26T07:24:43.526Z,18.00
2023-04-26T07:34:58.796Z,18.20
2023-04-26T07:45:14.308Z,19.40
2023-04-26T07:55:29.753Z,18.80
2023-04-26T08:05:45.641Z,19.40
2023-04-26T08:16:01.175Z,19.30
2023-04-26T08:26:16.523Z,24.70
2023-04-26T08:36:35.786Z,26.30
2023-04-26T08:47:04.071Z,22.80
2023-04-26T08:57:19.923Z,27.10
2023-04-26T09:07:45.908Z,27.10
2023-04-26T09:18:21.718Z,21.20
2023-04-26T09:28:37.331Z,19.30
2023-04-26T09:38:53.221Z,23.90
2023-04-26T09:49:08.956Z,19.30
2023-04-26T09:59:24.374Z,23.30
2023-04-26T10:09:41.609Z,20.00
2023-04-26T10:19:59.413Z,17.90
2023-04-26T10:30:16.771Z,14.10
2023-04-26T10:40:34.293Z,15.40
2023-04-26T10:51:02.058Z,15.20
2023-04-26T11:01:20.901Z,14.70
2023-04-26T11:11:53.300Z,15.20
2023-04-26T11:22:08.656Z,15.30
2023-04-26T11:32:24.687Z,14.70
2023-04-26T11:42:42.225Z,14.10
2023-04-26T11:53:00.178Z,13.40
2023-04-26T12:03:16.682Z,13.80
2023-04-26T12:13:32.963Z,13.70
2023-04-26T12:23:49.057Z,13.60
2023-04-26T12:34:04.654Z,13.50
2023-04-26T12:44:22.237Z,13.10
2023-04-26T12:54:38.301Z,13.50
2023-04-26T13:04:53.693Z,13.40
2023-04-26T13:15:10.072Z,13.00
2023-04-26T13:25:25.687Z,13.50
2023-04-26T13:35:41.102Z,13.40
2023-04-26T13:45:56.887Z,13.40
2023-04-26T13:56:12.477Z,13.60
2023-04-26T14:06:28.738Z,13.60
2023-04-26T14:16:44.246Z,13.30
2023-04-26T14:27:01.665Z,13.30
2023-04-26T14:37:17.117Z,12.90
2023-04-26T14:47:32.414Z,12.90
2023-04-26T14:57:48.408Z,12.40
2023-04-26T15:08:03.995Z,12.50
2023-04-26T15:18:19.080Z,12.80
2023-04-26T15:28:34.409Z,12.80
2023-04-26T15:39:08.762Z,13.10
2023-04-26T15:49:44.348Z,13.10
2023-04-26T16:00:21.287Z,12.90
2023-04-26T16:11:00.756Z,12.80
2023-04-26T16:21:36.592Z,12.90
2023-04-26T16:32:12.121Z,12.80
2023-04-26T16:42:47.526Z,12.70
2023-04-26T16:53:23.209Z,12.60
2023-04-26T17:03:58.756Z,12.60
2023-04-26T17:14:34.762Z,12.50
2023-04-26T17:25:10.247Z,12.40
2023-04-26T17:35:47.149Z,12.50
2023-04-26T17:46:22.939Z,12.30
2023-04-26T17:56:58.558Z,12.10
2023-04-26T18:07:34.091Z,12.00
2023-04-26T18:18:09.971Z,11.90
2023-04-26T18:28:46.099Z,11.70
2023-04-26T18:39:21.551Z,11.50
2023-04-26T18:49:56.966Z,11.40
2023-04-26T19:00:32.513Z,11.20
2023-04-26T19:11:08.993Z,11.00
2023-04-26T19:21:44.694Z,10.60
2023-04-26T19:32:22.710Z,10.30
2023-04-26T19:42:58.250Z,10.20
2023-04-26T19:53:35.166Z,10.10
2023-04-26T20:04:10.957Z,10.00
2023-04-26T20:14:47.213Z,9.80
2023-04-26T20:25:23.067Z,9.60
2023-04-26T20:35:59.139Z,9.40
2023-04-26T20:46:35.161Z,9.30
2023-04-26T20:57:11.795Z,9.10
2023-04-26T21:07:47.444Z,9.10
2023-04-26T21:18:23.223Z,8.90
2023-04-26T21:28:59.204Z,8.80
